createdAt,value
2018-07-24T00:00:11.143Z,25.07
2018-07-24T00:02:40.108Z,25.06
2018-07-24T00:05:08.990Z,25.09
2018-07-24T00:07:37.936Z,25.08
2018-07-24T00:10:06.846Z,25.10
2018-07-24T00:12:35.836Z,25.05
2018-07-24T00:15:06.770Z,24.83
2018-07-24T00:17:35.942Z,24.90
2018-07-24T00:20:05.487Z,24.98
2018-07-24T00:22:34.620Z,25.03
2018-07-24T00:25:03.674Z,24.88
2018-07-24T00:27:32.610Z,24.74
2018-07-24T00:30:01.527Z,24.87
2018-07-24T00:32:30.520Z,24.72
2018-07-24T00:34:59.472Z,24.71
2018-07-24T00:37:28.360Z,24.69
2018-07-24T00:39:57.541Z,24.77
2018-07-24T00:42:26.449Z,24.80
2018-07-24T00:44:55.321Z,24.68
2018-07-24T00:47:24.310Z,24.55
2018-07-24T00:49:53.250Z,24.62
2018-07-24T00:52:22.166Z,24.54
2018-07-24T00:54:51.068Z,24.73
2018-07-24T00:57:20.030Z,24.81
2018-07-24T00:59:48.989Z,24.78
2018-07-24T01:02:17.886Z,24.73
2018-07-24T01:04:46.794Z,24.73
2018-07-24T01:07:15.837Z,24.64
2018-07-24T01:09:45.027Z,24.73
2018-07-24T01:12:13.959Z,24.69
2018-07-24T01:14:42.856Z,24.81
2018-07-24T01:17:11.756Z,24.67
2018-07-24T01:19:40.753Z,24.79
2018-07-24T01:22:09.687Z,24.78
2018-07-24T01:24:41.028Z,24.76
2018-07-24T01:27:10.150Z,24.72
2018-07-24T01:29:39.026Z,24.70
2018-07-24T01:32:08.082Z,24.62
2018-07-24T01:34:36.993Z,24.64
2018-07-24T01:37:05.985Z,24.75
2018-07-24T01:39:34.867Z,24.72
2018-07-24T01:42:03.773Z,24.74
2018-07-24T01:44:32.740Z,24.70
2018-07-24T01:47:01.661Z,24.79
2018-07-24T01:49:30.653Z,24.75
2018-07-24T01:51:59.670Z,24.71
2018-07-24T01:54:28.564Z,24.68
2018-07-24T01:56:57.760Z,24.81
2018-07-24T01:59:27.151Z,24.68
2018-07-24T02:01:56.056Z,24.72
2018-07-24T02:04:24.987Z,24.79
2018-07-24T02:06:53.853Z,24.63
2018-07-24T02:09:22.755Z,24.66
2018-07-24T02:11:51.663Z,24.72
2018-07-24T02:14:20.558Z,24.65
2018-07-24T02:16:49.488Z,24.59
2018-07-24T02:19:18.459Z,24.59
2018-07-24T02:21:47.408Z,24.69
2018-07-24T02:24:16.283Z,24.69
2018-07-24T02:26:45.313Z,24.69
2018-07-24T02:29:14.198Z,24.73
2018-07-24T02:31:43.125Z,24.71
2018-07-24T02:34:12.005Z,24.77
2018-07-24T02:36:40.927Z,24.72
2018-07-24T02:39:12.342Z,24.68
2018-07-24T02:41:41.259Z,24.73
2018-07-24T02:44:10.526Z,24.77
2018-07-24T02:46:39.525Z,24.74
2018-07-24T02:49:08.428Z,24.65
2018-07-24T02:51:37.397Z,24.66
2018-07-24T02:54:06.459Z,24.61
2018-07-24T02:56:35.486Z,24.52
2018-07-24T02:59:05.423Z,24.63
2018-07-24T03:01:34.355Z,24.63
2018-07-24T03:04:03.262Z,24.66
2018-07-24T03:06:32.177Z,24.51
2018-07-24T03:09:01.090Z,24.52
2018-07-24T03:11:30.065Z,24.53
2018-07-24T03:13:58.992Z,24.57
2018-07-24T03:16:28.036Z,24.58
2018-07-24T03:18:56.939Z,24.53
2018-07-24T03:21:25.839Z,24.54
2018-07-24T03:23:54.717Z,24.55
2018-07-24T03:26:23.664Z,24.60
2018-07-24T03:28:52.562Z,24.57
2018-07-24T03:31:21.443Z,24.25
2018-07-24T03:33:50.411Z,24.10
2018-07-24T03:36:19.321Z,24.08
2018-07-24T03:38:48.233Z,24.01
2018-07-24T03:41:17.236Z,24.02
2018-07-24T03:43:46.210Z,23.94
2018-07-24T03:46:15.211Z,23.92
2018-07-24T03:48:44.123Z,23.88
2018-07-24T03:51:13.125Z,23.84
2018-07-24T03:53:42.032Z,23.83
2018-07-24T03:56:11.034Z,23.84
2018-07-24T03:58:39.983Z,23.82
2018-07-24T04:01:09.005Z,23.86
2018-07-24T04:03:37.924Z,23.84
2018-07-24T04:06:06.901Z,23.88
2018-07-24T04:08:35.807Z,23.88
2018-07-24T04:11:04.777Z,23.85
2018-07-24T04:13:33.663Z,23.85
2018-07-24T04:16:02.661Z,23.83
2018-07-24T04:18:38.519Z,23.77
2018-07-24T04:21:07.459Z,23.76
2018-07-24T04:23:36.439Z,23.75
2018-07-24T04:26:05.350Z,23.80
2018-07-24T04:28:34.314Z,23.78
2018-07-24T04:31:03.469Z,23.81
2018-07-24T04:33:32.323Z,23.82
2018-07-24T04:36:01.592Z,23.85
2018-07-24T04:38:30.495Z,23.91
2018-07-24T04:40:59.427Z,23.97
2018-07-24T04:43:28.352Z,23.96
2018-07-24T04:46:02.298Z,24.04
2018-07-24T04:48:31.458Z,24.05
2018-07-24T04:51:00.407Z,24.11
2018-07-24T04:53:29.350Z,24.14
2018-07-24T04:55:58.396Z,24.14
2018-07-24T04:58:27.485Z,24.23
2018-07-24T05:00:56.381Z,24.38
2018-07-24T05:03:25.302Z,24.47
2018-07-24T05:05:54.200Z,24.47
2018-07-24T05:08:23.104Z,24.56
2018-07-24T05:10:52.137Z,24.55
2018-07-24T05:13:21.102Z,24.66
2018-07-24T05:15:50.080Z,24.74
2018-07-24T05:18:19.010Z,24.85
2018-07-24T05:20:47.949Z,24.84
2018-07-24T05:23:16.886Z,24.81
2018-07-24T05:25:45.888Z,24.85
2018-07-24T05:28:14.772Z,24.83
2018-07-24T05:30:43.717Z,24.90
2018-07-24T05:33:12.703Z,24.90
2018-07-24T05:35:41.548Z,24.94
2018-07-24T05:38:10.476Z,25.08
2018-07-24T05:40:39.429Z,25.16
2018-07-24T05:43:08.317Z,25.16
2018-07-24T05:45:37.396Z,25.17
2018-07-24T05:48:06.308Z,25.13
2018-07-24T05:50:35.231Z,25.12
2018-07-24T05:53:04.159Z,25.14
2018-07-24T05:55:33.151Z,25.08
2018-07-24T05:58:02.068Z,25.15
2018-07-24T06:00:31.044Z,25.17
2018-07-24T06:03:00.053Z,25.25
2018-07-24T06:05:29.004Z,25.23
2018-07-24T06:07:57.976Z,25.18
2018-07-24T06:10:26.911Z,25.33
2018-07-24T06:12:55.852Z,25.39
2018-07-24T06:15:24.788Z,25.46
2018-07-24T06:17:53.752Z,25.51
2018-07-24T06:20:22.920Z,25.51
2018-07-24T06:22:51.816Z,25.53
2018-07-24T06:25:20.738Z,25.59
2018-07-24T06:27:49.691Z,25.52
2018-07-24T06:30:18.630Z,25.46
2018-07-24T06:32:47.552Z,25.59
2018-07-24T06:35:16.468Z,25.65
2018-07-24T06:37:45.434Z,25.74
2018-07-24T06:40:14.326Z,25.80
2018-07-24T06:42:43.266Z,25.77
2018-07-24T06:45:12.264Z,25.63
2018-07-24T06:47:41.203Z,25.72
2018-07-24T06:50:10.224Z,25.77
2018-07-24T06:52:39.147Z,25.75
2018-07-24T06:55:08.068Z,25.75
2018-07-24T06:57:37.040Z,25.78
2018-07-24T07:00:06.184Z,25.76
2018-07-24T07:02:35.134Z,25.72
2018-07-24T07:05:04.127Z,25.72
2018-07-24T07:07:33.032Z,25.81
2018-07-24T07:10:02.016Z,25.77
2018-07-24T07:12:30.997Z,26.04
2018-07-24T07:15:00.023Z,26.27
2018-07-24T07:17:29.057Z,26.67
2018-07-24T07:19:58.132Z,26.76
2018-07-24T07:22:27.105Z,27.06
2018-07-24T07:24:56.107Z,27.08
2018-07-24T07:27:25.065Z,27.07
2018-07-24T07:29:54.057Z,27.13
2018-07-24T07:32:23.043Z,27.27
2018-07-24T07:34:51.950Z,27.14
2018-07-24T07:37:20.943Z,27.26
2018-07-24T07:39:49.892Z,27.39
2018-07-24T07:42:18.859Z,27.43
2018-07-24T07:44:47.757Z,27.37
2018-07-24T07:47:16.649Z,27.42
2018-07-24T07:49:45.557Z,27.40
2018-07-24T07:52:14.527Z,27.63
2018-07-24T07:54:43.513Z,27.75
2018-07-24T07:57:12.481Z,27.75
2018-07-24T07:59:41.440Z,27.79
2018-07-24T08:02:10.508Z,28.15
2018-07-24T08:04:39.439Z,27.98
2018-07-24T08:07:08.417Z,28.09
2018-07-24T08:09:37.412Z,28.00
2018-07-24T08:12:06.340Z,28.17
2018-07-24T08:14:35.232Z,28.31
2018-07-24T08:17:04.269Z,28.26
2018-07-24T08:19:33.172Z,28.04
2018-07-24T08:22:02.254Z,28.09
2018-07-24T08:24:31.278Z,28.01
2018-07-24T08:27:00.159Z,28.10
2018-07-24T08:29:29.158Z,28.48
2018-07-24T08:31:58.024Z,28.41
2018-07-24T08:34:27.227Z,28.46
2018-07-24T08:36:56.168Z,28.23
2018-07-24T08:39:25.139Z,28.00
2018-07-24T08:41:54.142Z,28.16
2018-07-24T08:44:23.068Z,28.22
2018-07-24T08:46:51.977Z,28.24
2018-07-24T08:49:20.858Z,28.58
2018-07-24T08:51:49.772Z,28.84
2018-07-24T08:54:18.943Z,28.50
2018-07-24T08:56:47.684Z,28.63
2018-07-24T08:59:16.610Z,28.67
2018-07-24T09:04:47.970Z,29.12
2018-07-24T09:07:16.853Z,29.02
2018-07-24T09:09:45.741Z,29.03
2018-07-24T09:12:14.705Z,28.81
2018-07-24T09:14:43.636Z,29.01
2018-07-24T09:17:12.542Z,28.95
2018-07-24T09:19:41.490Z,28.70
2018-07-24T09:22:10.376Z,28.81
2018-07-24T09:24:39.294Z,28.97
2018-07-24T09:27:08.246Z,29.00
2018-07-24T09:29:37.330Z,28.98
2018-07-24T09:32:06.287Z,29.13
2018-07-24T09:34:35.207Z,29.40
2018-07-24T09:37:04.144Z,29.39
2018-07-24T09:39:33.071Z,29.43
2018-07-24T09:42:02.040Z,29.24
2018-07-24T09:44:30.916Z,29.15
2018-07-24T09:46:59.963Z,29.09
2018-07-24T09:49:28.931Z,29.13
2018-07-24T09:51:57.894Z,29.03
2018-07-24T09:54:26.918Z,29.02
2018-07-24T09:56:55.820Z,29.26
2018-07-24T09:59:24.758Z,29.43
2018-07-24T10:01:53.566Z,29.68
2018-07-24T10:04:22.552Z,29.38
2018-07-24T10:06:51.438Z,29.46
2018-07-24T10:09:20.318Z,29.31
2018-07-24T10:11:49.236Z,29.33
2018-07-24T10:14:18.114Z,29.38
2018-07-24T10:16:47.833Z,29.33
2018-07-24T10:19:16.712Z,29.44
2018-07-24T10:21:45.582Z,29.06
2018-07-24T10:24:14.489Z,29.26
2018-07-24T10:26:43.378Z,29.69
2018-07-24T10:29:12.290Z,29.69
2018-07-24T10:31:41.252Z,29.79
2018-07-24T10:34:10.137Z,29.67
2018-07-24T10:36:39.041Z,29.58
2018-07-24T10:39:09.873Z,29.86
2018-07-24T10:41:38.815Z,30.24
2018-07-24T10:44:07.908Z,29.82
2018-07-24T10:46:37.606Z,29.65
2018-07-24T10:49:07.191Z,29.68
2018-07-24T10:51:36.109Z,30.05
2018-07-24T10:54:04.981Z,29.90
2018-07-24T10:56:34.270Z,29.52
2018-07-24T10:59:03.392Z,29.41
2018-07-24T11:01:32.284Z,29.36
2018-07-24T11:04:01.160Z,29.48
2018-07-24T11:06:30.055Z,29.55
2018-07-24T11:08:58.963Z,29.63
2018-07-24T11:11:27.931Z,29.51
2018-07-24T11:13:56.847Z,29.58
2018-07-24T11:16:25.719Z,29.49
2018-07-24T11:18:54.606Z,29.45
2018-07-24T11:21:29.219Z,29.47
2018-07-24T11:23:58.136Z,29.39
2018-07-24T11:26:27.024Z,29.30
2018-07-24T11:28:55.922Z,29.27
2018-07-24T11:31:24.789Z,29.33
2018-07-24T11:33:53.655Z,29.39
2018-07-24T11:36:22.620Z,29.33
2018-07-24T11:38:51.466Z,29.32
2018-07-24T11:41:20.346Z,29.49
2018-07-24T11:43:49.269Z,29.70
2018-07-24T11:46:18.348Z,29.67
2018-07-24T11:48:47.232Z,29.62
2018-07-24T11:51:16.131Z,29.46
2018-07-24T11:53:45.068Z,29.50
2018-07-24T11:56:13.990Z,29.53
2018-07-24T11:58:42.940Z,29.47
2018-07-24T12:01:11.815Z,29.74
2018-07-24T12:03:40.705Z,29.93
2018-07-24T12:06:09.607Z,30.03
2018-07-24T12:08:38.769Z,29.93
2018-07-24T12:11:07.640Z,29.83
2018-07-24T12:13:36.490Z,29.97
2018-07-24T12:16:05.537Z,29.81
2018-07-24T12:18:34.424Z,29.92
2018-07-24T12:21:03.340Z,29.96
2018-07-24T12:23:32.232Z,30.05
2018-07-24T12:26:01.217Z,30.10
2018-07-24T12:28:30.076Z,30.08
2018-07-24T12:30:58.924Z,30.16
2018-07-24T12:33:28.383Z,30.11
2018-07-24T12:35:57.294Z,30.04
2018-07-24T12:38:26.166Z,29.91
2018-07-24T12:40:55.217Z,29.89
2018-07-24T12:43:24.148Z,29.92
2018-07-24T12:45:52.960Z,29.89
2018-07-24T12:48:21.839Z,29.89
2018-07-24T12:50:50.768Z,29.87
2018-07-24T12:53:19.714Z,29.97
2018-07-24T12:55:48.575Z,29.98
2018-07-24T12:58:17.438Z,29.96
2018-07-24T13:00:46.403Z,29.89
2018-07-24T13:03:15.280Z,29.74
2018-07-24T13:05:44.176Z,29.82
2018-07-24T13:08:13.074Z,29.88
2018-07-24T13:10:42.032Z,29.71
2018-07-24T13:13:10.903Z,29.72
2018-07-24T13:15:39.789Z,29.65
2018-07-24T13:18:08.695Z,29.74
2018-07-24T13:20:37.602Z,29.55
2018-07-24T13:23:07.335Z,29.73
2018-07-24T13:25:36.295Z,29.74
2018-07-24T13:28:05.240Z,29.72
2018-07-24T13:30:34.127Z,29.63
2018-07-24T13:33:03.048Z,29.84
2018-07-24T13:35:31.891Z,29.78
2018-07-24T13:38:00.788Z,29.68
2018-07-24T13:40:29.857Z,29.73
2018-07-24T13:42:58.780Z,29.68
2018-07-24T13:45:27.695Z,29.60
2018-07-24T13:48:01.024Z,29.64
2018-07-24T13:50:29.864Z,29.67
2018-07-24T13:52:58.935Z,29.72
2018-07-24T13:55:27.834Z,29.85
2018-07-24T13:57:57.032Z,29.91
2018-07-24T14:00:26.043Z,29.78
2018-07-24T14:02:55.302Z,29.58
2018-07-24T14:05:24.296Z,29.68
2018-07-24T14:07:53.136Z,29.73
2018-07-24T14:10:22.113Z,29.66
2018-07-24T14:12:51.042Z,29.67
2018-07-24T14:15:19.928Z,29.64
2018-07-24T14:17:49.084Z,29.53
2018-07-24T14:20:18.304Z,29.39
2018-07-24T14:22:48.320Z,29.42
2018-07-24T14:25:17.201Z,29.39
2018-07-24T14:27:46.197Z,29.58
2018-07-24T14:30:15.272Z,29.54
2018-07-24T14:32:44.199Z,29.37
2018-07-24T14:35:13.251Z,29.43
2018-07-24T14:37:42.299Z,29.43
2018-07-24T14:40:11.285Z,29.44
2018-07-24T14:42:40.235Z,29.46
2018-07-24T14:45:09.181Z,29.38
2018-07-24T14:47:38.075Z,29.43
2018-07-24T14:50:06.977Z,29.37
2018-07-24T14:52:35.989Z,29.36
2018-07-24T14:55:04.863Z,29.45
2018-07-24T14:57:33.906Z,29.38
2018-07-24T15:00:02.940Z,29.38
2018-07-24T15:02:31.966Z,29.39
2018-07-24T15:05:00.883Z,29.33
2018-07-24T15:07:29.841Z,29.42
2018-07-24T15:09:58.842Z,29.49
2018-07-24T15:12:27.767Z,29.54
2018-07-24T15:14:56.776Z,29.51
2018-07-24T15:17:25.805Z,29.49
2018-07-24T15:19:54.851Z,29.49
2018-07-24T15:22:23.737Z,29.45
2018-07-24T15:24:52.633Z,29.48
2018-07-24T15:27:21.572Z,29.40
2018-07-24T15:29:50.448Z,29.28
2018-07-24T15:32:19.425Z,29.52
2018-07-24T15:34:48.368Z,29.51
2018-07-24T15:37:17.869Z,29.27
2018-07-24T15:39:47.018Z,29.35
2018-07-24T15:42:16.121Z,29.35
2018-07-24T15:44:45.020Z,29.38
2018-07-24T15:47:14.004Z,29.28
2018-07-24T15:49:42.980Z,29.32
2018-07-24T15:52:11.910Z,29.40
2018-07-24T15:54:40.792Z,29.43
2018-07-24T15:57:09.779Z,29.40
2018-07-24T15:59:38.646Z,29.33
2018-07-24T16:02:08.113Z,29.30
2018-07-24T16:04:37.136Z,29.31
2018-07-24T16:07:06.269Z,29.40
2018-07-24T16:09:35.152Z,29.45
2018-07-24T16:12:04.147Z,29.37
2018-07-24T16:14:33.088Z,29.32
2018-07-24T16:17:01.968Z,29.31
2018-07-24T16:19:30.894Z,29.27
2018-07-24T16:21:59.869Z,29.31
2018-07-24T16:24:28.810Z,29.34
2018-07-24T16:26:57.716Z,29.31
2018-07-24T16:29:26.631Z,29.28
2018-07-24T16:31:56.614Z,29.35
2018-07-24T16:34:25.690Z,29.35
2018-07-24T16:36:54.757Z,29.29
2018-07-24T16:39:23.611Z,29.30
2018-07-24T16:41:52.579Z,29.24
2018-07-24T16:44:21.804Z,29.18
2018-07-24T16:46:50.718Z,29.19
2018-07-24T16:49:19.600Z,29.15
2018-07-24T16:51:48.705Z,29.12
2018-07-24T16:54:17.586Z,29.24
2018-07-24T16:56:46.526Z,29.24
2018-07-24T16:59:15.527Z,29.27
2018-07-24T17:01:44.507Z,29.23
2018-07-24T17:04:14.427Z,29.13
2018-07-24T17:06:43.311Z,29.20
2018-07-24T17:09:12.920Z,29.02
2018-07-24T17:11:42.034Z,28.81
2018-07-24T17:14:10.930Z,28.86
2018-07-24T17:16:39.853Z,28.98
2018-07-24T17:19:08.768Z,28.94
2018-07-24T17:21:37.777Z,28.90
2018-07-24T17:24:06.691Z,28.93
2018-07-24T17:26:35.716Z,28.92
2018-07-24T17:29:04.549Z,28.91
2018-07-24T17:31:33.452Z,28.81
2018-07-24T17:34:09.618Z,28.84
2018-07-24T17:36:38.493Z,28.72
2018-07-24T17:39:08.686Z,28.72
2018-07-24T17:41:37.703Z,28.66
2018-07-24T17:44:07.001Z,28.60
2018-07-24T17:46:36.028Z,28.62
2018-07-24T17:49:05.272Z,28.61
2018-07-24T17:51:34.235Z,28.67
2018-07-24T17:54:03.154Z,28.67
2018-07-24T17:56:32.054Z,28.65
2018-07-24T17:59:01.037Z,28.66
2018-07-24T18:01:29.947Z,28.58
2018-07-24T18:03:58.868Z,28.47
2018-07-24T18:06:27.769Z,28.42
2018-07-24T18:08:56.759Z,28.39
2018-07-24T18:11:25.723Z,28.43
2018-07-24T18:13:54.619Z,28.30
2018-07-24T18:16:23.774Z,28.32
2018-07-24T18:18:52.719Z,28.34
2018-07-24T18:21:21.640Z,28.32
2018-07-24T18:23:50.511Z,28.24
2018-07-24T18:26:19.542Z,28.28
2018-07-24T18:28:48.413Z,28.22
2018-07-24T18:31:17.285Z,28.14
2018-07-24T18:33:46.299Z,28.02
2018-07-24T18:36:15.193Z,27.93
2018-07-24T18:38:44.169Z,27.95
2018-07-24T18:41:13.044Z,27.92
2018-07-24T18:43:41.940Z,27.92
2018-07-24T18:46:10.857Z,27.95
2018-07-24T18:48:39.782Z,27.97
2018-07-24T18:51:08.722Z,27.99
2018-07-24T18:53:37.596Z,27.96
2018-07-24T18:56:06.510Z,27.93
2018-07-24T18:58:36.258Z,27.91
2018-07-24T19:01:05.302Z,27.98
2018-07-24T19:03:34.194Z,27.84
2018-07-24T19:06:03.168Z,27.79
2018-07-24T19:08:32.052Z,27.83
2018-07-24T19:11:00.966Z,27.74
2018-07-24T19:13:29.862Z,27.68
2018-07-24T19:15:58.732Z,27.66
2018-07-24T19:18:27.716Z,27.74
2018-07-24T19:20:56.585Z,27.58
2018-07-24T19:23:25.486Z,27.42
2018-07-24T19:25:54.519Z,27.31
2018-07-24T19:28:23.424Z,27.29
2018-07-24T19:30:52.432Z,27.30
2018-07-24T19:33:21.386Z,27.30
2018-07-24T19:35:50.264Z,27.20
2018-07-24T19:38:19.241Z,27.21
2018-07-24T19:40:48.223Z,27.05
2018-07-24T19:43:17.240Z,27.15
2018-07-24T19:45:46.118Z,27.11
2018-07-24T19:48:14.992Z,27.02
2018-07-24T19:50:43.966Z,27.00
2018-07-24T19:53:12.911Z,27.05
2018-07-24T19:55:41.786Z,27.01
2018-07-24T19:58:10.726Z,26.96
2018-07-24T20:00:39.662Z,26.81
2018-07-24T20:03:08.721Z,26.80
2018-07-24T20:05:37.664Z,26.87
2018-07-24T20:08:06.712Z,26.86
2018-07-24T20:10:35.672Z,26.84
2018-07-24T20:13:04.560Z,26.82
2018-07-24T20:15:33.613Z,26.88
2018-07-24T20:18:03.592Z,26.90
2018-07-24T20:20:32.534Z,26.78
2018-07-24T20:23:01.557Z,26.83
2018-07-24T20:25:30.586Z,26.85
2018-07-24T20:27:59.570Z,26.67
2018-07-24T20:30:28.756Z,26.72
2018-07-24T20:32:57.696Z,26.79
2018-07-24T20:35:26.727Z,26.66
2018-07-24T20:37:55.626Z,26.48
2018-07-24T20:40:24.573Z,26.28
2018-07-24T20:42:53.686Z,26.39
2018-07-24T20:45:22.674Z,26.56
2018-07-24T20:47:51.578Z,26.49
2018-07-24T20:50:20.591Z,26.43
2018-07-24T20:52:49.574Z,26.30
2018-07-24T20:55:18.494Z,26.28
2018-07-24T20:57:48.951Z,26.14
2018-07-24T21:00:18.167Z,26.13
2018-07-24T21:02:47.066Z,26.18
2018-07-24T21:05:16.058Z,26.02
2018-07-24T21:07:44.990Z,26.15
2018-07-24T21:10:16.852Z,26.10
2018-07-24T21:12:46.875Z,25.95
2018-07-24T21:15:16.322Z,25.97
2018-07-24T21:17:45.287Z,26.02
2018-07-24T21:20:14.227Z,25.89
2018-07-24T21:22:43.180Z,25.85
2018-07-24T21:25:12.202Z,25.84
2018-07-24T21:27:41.071Z,25.90
2018-07-24T21:30:10.471Z,25.92
2018-07-24T21:32:39.452Z,25.88
2018-07-24T21:35:08.382Z,25.94
2018-07-24T21:37:37.330Z,25.93
2018-07-24T21:40:07.344Z,25.87
2018-07-24T21:42:36.480Z,25.90
2018-07-24T21:45:05.394Z,25.99
2018-07-24T21:47:34.282Z,25.96
2018-07-24T21:50:03.338Z,25.98
2018-07-24T21:52:32.235Z,26.05
2018-07-24T21:55:01.137Z,26.19
2018-07-24T21:57:30.068Z,26.20
2018-07-24T21:59:58.930Z,26.11
2018-07-24T22:02:27.950Z,26.08
2018-07-24T22:04:56.902Z,26.00
2018-07-24T22:07:25.811Z,25.90
2018-07-24T22:09:55.756Z,25.90
2018-07-24T22:12:25.196Z,25.74
2018-07-24T22:14:54.200Z,25.90
2018-07-24T22:17:24.126Z,25.88
2018-07-24T22:19:53.215Z,26.00
2018-07-24T22:22:23.137Z,25.99
2018-07-24T22:24:52.018Z,25.95
2018-07-24T22:27:21.061Z,25.92
2018-07-24T22:29:50.047Z,25.79
2018-07-24T22:32:20.058Z,25.81
2018-07-24T22:34:49.938Z,25.72
2018-07-24T22:37:18.854Z,25.77
2018-07-24T22:39:47.826Z,25.65
2018-07-24T22:42:16.718Z,25.75
2018-07-24T22:44:45.574Z,25.79
2018-07-24T22:47:14.447Z,25.74
2018-07-24T22:49:46.817Z,25.64
2018-07-24T22:52:15.699Z,25.54
2018-07-24T22:54:45.374Z,25.59
2018-07-24T22:57:14.241Z,25.62
2018-07-24T22:59:43.250Z,25.56
2018-07-24T23:02:12.135Z,25.49
2018-07-24T23:04:41.106Z,25.56
2018-07-24T23:07:10.062Z,25.64
2018-07-24T23:09:39.081Z,25.55
2018-07-24T23:12:08.066Z,25.41
2018-07-24T23:14:37.018Z,25.48
2018-07-24T23:17:06.094Z,25.46
2018-07-24T23:19:35.051Z,25.46
2018-07-24T23:22:03.966Z,25.36
2018-07-24T23:24:32.844Z,25.49
2018-07-24T23:27:01.732Z,25.44
2018-07-24T23:29:30.700Z,25.32
2018-07-24T23:31:59.778Z,25.22
2018-07-24T23:34:28.774Z,25.34
2018-07-24T23:36:57.726Z,25.39
2018-07-24T23:39:26.705Z,25.41
2018-07-24T23:41:55.700Z,25.35
2018-07-24T23:44:24.650Z,25.18
2018-07-24T23:46:53.576Z,25.33
2018-07-24T23:49:22.460Z,25.42
2018-07-24T23:51:52.052Z,25.43
2018-07-24T23:54:21.944Z,25.41
2018-07-24T23:56:50.910Z,25.37
2018-07-24T23:59:20.268Z,25.37
